sensor_id;sensor_type;location;lat;lon;timestamp;P1;durP1;ratioP1;P2;durP2;ratioP2
3379;SDS011;1703;51.964;7.642;2023-07-29T00:01:44;3.87;;;3.57;;
3379;SDS011;1703;51.964;7.642;2023-07-29T00:04:11;5.60;;;4.43;;
3379;SDS011;1703;51.964;7.642;2023-07-29T00:06:38;7.87;;;4.07;;
3379;SDS011;1703;51.964;7.642;2023-07-29T00:09:05;7.23;;;4.87;;
3379;SDS011;1703;51.964;7.642;2023-07-29T00:11:31;5.10;;;4.67;;
3379;SDS011;1703;51.964;7.642;2023-07-29T00:14:00;5.50;;;5.00;;
3379;SDS011;1703;51.964;7.642;2023-07-29T00:16:27;6.07;;;4.67;;
3379;SDS011;1703;51.964;7.642;2023-07-29T00:18:54;5.80;;;5.00;;
3379;SDS011;1703;51.964;7.642;2023-07-29T00:21:21;4.60;;;4.00;;
3379;SDS011;1703;51.964;7.642;2023-07-29T00:23:48;4.10;;;3.70;;
3379;SDS011;1703;51.964;7.642;2023-07-29T00:26:15;12.50;;;4.47;;
3379;SDS011;1703;51.964;7.642;2023-07-29T00:28:41;5.83;;;3.50;;
3379;SDS011;1703;51.964;7.642;2023-07-29T00:31:10;4.70;;;3.30;;
3379;SDS011;1703;51.964;7.642;2023-07-29T00:33:36;4.37;;;3.37;;
3379;SDS011;1703;51.964;7.642;2023-07-29T00:36:03;4.17;;;3.77;;
3379;SDS011;1703;51.964;7.642;2023-07-29T00:38:30;7.20;;;3.37;;
3379;SDS011;1703;51.964;7.642;2023-07-29T00:40:57;4.20;;;3.80;;
3379;SDS011;1703;51.964;7.642;2023-07-29T00:43:24;4.30;;;2.87;;
3379;SDS011;1703;51.964;7.642;2023-07-29T00:45:51;4.70;;;3.17;;
3379;SDS011;1703;51.964;7.642;2023-07-29T00:48:19;2.93;;;2.73;;
3379;SDS011;1703;51.964;7.642;2023-07-29T00:50:46;3.07;;;2.77;;
3379;SDS011;1703;51.964;7.642;2023-07-29T00:53:13;3.00;;;2.77;;
3379;SDS011;1703;51.964;7.642;2023-07-29T00:55:40;3.53;;;2.60;;
3379;SDS011;1703;51.964;7.642;2023-07-29T00:58:07;3.33;;;3.03;;
3379;SDS011;1703;51.964;7.642;2023-07-29T01:00:34;3.67;;;3.13;;
3379;SDS011;1703;51.964;7.642;2023-07-29T01:03:03;3.23;;;2.60;;
3379;SDS011;1703;51.964;7.642;2023-07-29T01:05:34;3.33;;;3.00;;
3379;SDS011;1703;51.964;7.642;2023-07-29T01:08:09;9.23;;;3.10;;
3379;SDS011;1703;51.964;7.642;2023-07-29T01:10:44;3.60;;;3.40;;
3379;SDS011;1703;51.964;7.642;2023-07-29T01:13:18;4.17;;;2.93;;
3379;SDS011;1703;51.964;7.642;2023-07-29T01:15:51;2.83;;;2.60;;
3379;SDS011;1703;51.964;7.642;2023-07-29T01:18:22;3.10;;;2.90;;
3379;SDS011;1703;51.964;7.642;2023-07-29T01:20:53;3.13;;;2.80;;
3379;SDS011;1703;51.964;7.642;2023-07-29T01:23:24;3.83;;;3.53;;
3379;SDS011;1703;51.964;7.642;2023-07-29T01:25:52;4.50;;;4.10;;
3379;SDS011;1703;51.964;7.642;2023-07-29T01:28:18;5.53;;;3.30;;
3379;SDS011;1703;51.964;7.642;2023-07-29T01:30:45;4.13;;;3.73;;
3379;SDS011;1703;51.964;7.642;2023-07-29T01:33:20;2.93;;;2.73;;
3379;SDS011;1703;51.964;7.642;2023-07-29T01:35:52;4.40;;;4.10;;
3379;SDS011;1703;51.964;7.642;2023-07-29T01:38:28;5.70;;;4.17;;
3379;SDS011;1703;51.964;7.642;2023-07-29T01:40:59;4.67;;;4.27;;
3379;SDS011;1703;51.964;7.642;2023-07-29T01:43:27;4.03;;;3.73;;
3379;SDS011;1703;51.964;7.642;2023-07-29T01:45:54;3.87;;;3.57;;
3379;SDS011;1703;51.964;7.642;2023-07-29T01:48:21;4.83;;;4.40;;
3379;SDS011;1703;51.964;7.642;2023-07-29T01:50:49;8.97;;;4.23;;
3379;SDS011;1703;51.964;7.642;2023-07-29T01:53:16;5.50;;;3.33;;
3379;SDS011;1703;51.964;7.642;2023-07-29T01:55:44;5.60;;;4.03;;
3379;SDS011;1703;51.964;7.642;2023-07-29T01:58:11;4.33;;;4.03;;
3379;SDS011;1703;51.964;7.642;2023-07-29T02:00:39;4.40;;;3.90;;
3379;SDS011;1703;51.964;7.642;2023-07-29T02:03:06;5.30;;;3.80;;
3379;SDS011;1703;51.964;7.642;2023-07-29T02:05:33;6.30;;;3.77;;
3379;SDS011;1703;51.964;7.642;2023-07-29T02:08:00;4.63;;;3.57;;
3379;SDS011;1703;51.964;7.642;2023-07-29T02:10:27;9.97;;;4.70;;
3379;SDS011;1703;51.964;7.642;2023-07-29T02:12:55;5.97;;;5.37;;
3379;SDS011;1703;51.964;7.642;2023-07-29T02:15:22;7.23;;;5.30;;
3379;SDS011;1703;51.964;7.642;2023-07-29T02:17:49;6.70;;;5.13;;
3379;SDS011;1703;51.964;7.642;2023-07-29T02:20:17;4.37;;;3.80;;
3379;SDS011;1703;51.964;7.642;2023-07-29T02:22:44;4.60;;;4.20;;
3379;SDS011;1703;51.964;7.642;2023-07-29T02:25:11;4.50;;;4.10;;
3379;SDS011;1703;51.964;7.642;2023-07-29T02:27:38;3.80;;;3.50;;
3379;SDS011;1703;51.964;7.642;2023-07-29T02:30:07;11.40;;;4.57;;
3379;SDS011;1703;51.964;7.642;2023-07-29T02:32:34;8.20;;;4.60;;
3379;SDS011;1703;51.964;7.642;2023-07-29T02:35:01;4.30;;;3.90;;
3379;SDS011;1703;51.964;7.642;2023-07-29T02:37:28;4.17;;;3.87;;
3379;SDS011;1703;51.964;7.642;2023-07-29T02:39:55;4.40;;;4.03;;
3379;SDS011;1703;51.964;7.642;2023-07-29T02:42:22;5.13;;;3.77;;
3379;SDS011;1703;51.964;7.642;2023-07-29T02:44:49;3.80;;;3.50;;
3379;SDS011;1703;51.964;7.642;2023-07-29T02:47:17;6.10;;;4.00;;
3379;SDS011;1703;51.964;7.642;2023-07-29T02:49:44;5.60;;;4.67;;
3379;SDS011;1703;51.964;7.642;2023-07-29T02:52:11;6.93;;;4.80;;
3379;SDS011;1703;51.964;7.642;2023-07-29T02:54:38;5.03;;;4.27;;
3379;SDS011;1703;51.964;7.642;2023-07-29T02:57:04;3.77;;;3.47;;
3379;SDS011;1703;51.964;7.642;2023-07-29T02:59:31;5.40;;;5.00;;
3379;SDS011;1703;51.964;7.642;2023-07-29T03:01:58;4.70;;;4.40;;
3379;SDS011;1703;51.964;7.642;2023-07-29T03:04:26;5.53;;;4.63;;
3379;SDS011;1703;51.964;7.642;2023-07-29T03:06:53;4.90;;;4.27;;
3379;SDS011;1703;51.964;7.642;2023-07-29T03:09:20;4.87;;;4.20;;
3379;SDS011;1703;51.964;7.642;2023-07-29T03:11:46;4.30;;;3.90;;
3379;SDS011;1703;51.964;7.642;2023-07-29T03:14:13;8.87;;;6.10;;
3379;SDS011;1703;51.964;7.642;2023-07-29T03:16:41;4.87;;;4.37;;
3379;SDS011;1703;51.964;7.642;2023-07-29T03:19:07;5.43;;;4.93;;
3379;SDS011;1703;51.964;7.642;2023-07-29T03:21:36;5.23;;;4.80;;
3379;SDS011;1703;51.964;7.642;2023-07-29T03:24:02;6.07;;;5.67;;
3379;SDS011;1703;51.964;7.642;2023-07-29T03:26:29;4.77;;;4.33;;
3379;SDS011;1703;51.964;7.642;2023-07-29T03:28:56;6.70;;;5.57;;
3379;SDS011;1703;51.964;7.642;2023-07-29T03:31:23;4.53;;;4.23;;
3379;SDS011;1703;51.964;7.642;2023-07-29T03:33:50;5.90;;;5.40;;
3379;SDS011;1703;51.964;7.642;2023-07-29T03:36:16;5.90;;;5.30;;
3379;SDS011;1703;51.964;7.642;2023-07-29T03:38:45;8.10;;;5.50;;
3379;SDS011;1703;51.964;7.642;2023-07-29T03:41:12;7.00;;;4.97;;
3379;SDS011;1703;51.964;7.642;2023-07-29T03:43:39;6.40;;;5.80;;
3379;SDS011;1703;51.964;7.642;2023-07-29T03:46:06;8.07;;;5.47;;
3379;SDS011;1703;51.964;7.642;2023-07-29T03:48:33;5.60;;;5.00;;
3379;SDS011;1703;51.964;7.642;2023-07-29T03:50:59;6.53;;;6.03;;
3379;SDS011;1703;51.964;7.642;2023-07-29T03:53:26;6.20;;;5.70;;
3379;SDS011;1703;51.964;7.642;2023-07-29T03:55:54;6.37;;;5.13;;
3379;SDS011;1703;51.964;7.642;2023-07-29T03:58:21;8.13;;;5.17;;
3379;SDS011;1703;51.964;7.642;2023-07-29T04:00:48;7.13;;;6.43;;
3379;SDS011;1703;51.964;7.642;2023-07-29T04:03:15;6.73;;;6.00;;
3379;SDS011;1703;51.964;7.642;2023-07-29T04:05:43;6.57;;;6.03;;
3379;SDS011;1703;51.964;7.642;2023-07-29T04:08:10;7.73;;;6.00;;
3379;SDS011;1703;51.964;7.642;2023-07-29T04:10:37;6.57;;;5.97;;
3379;SDS011;1703;51.964;7.642;2023-07-29T04:13:05;7.27;;;6.57;;
3379;SDS011;1703;51.964;7.642;2023-07-29T04:15:32;7.27;;;6.67;;
3379;SDS011;1703;51.964;7.642;2023-07-29T04:17:59;7.20;;;6.60;;
3379;SDS011;1703;51.964;7.642;2023-07-29T04:20:26;8.23;;;7.53;;
3379;SDS011;1703;51.964;7.642;2023-07-29T04:22:53;8.13;;;7.37;;
3379;SDS011;1703;51.964;7.642;2023-07-29T04:25:20;8.43;;;7.20;;
3379;SDS011;1703;51.964;7.642;2023-07-29T04:27:47;6.83;;;6.10;;
3379;SDS011;1703;51.964;7.642;2023-07-29T04:30:15;6.20;;;5.60;;
3379;SDS011;1703;51.964;7.642;2023-07-29T04:32:42;7.80;;;7.10;;
3379;SDS011;1703;51.964;7.642;2023-07-29T04:35:10;8.77;;;7.90;;
3379;SDS011;1703;51.964;7.642;2023-07-29T04:37:36;7.30;;;6.60;;
3379;SDS011;1703;51.964;7.642;2023-07-29T04:40:04;7.80;;;7.10;;
3379;SDS011;1703;51.964;7.642;2023-07-29T04:42:31;8.33;;;7.10;;
3379;SDS011;1703;51.964;7.642;2023-07-29T04:44:58;7.03;;;6.43;;
3379;SDS011;1703;51.964;7.642;2023-07-29T04:47:26;8.00;;;6.57;;
3379;SDS011;1703;51.964;7.642;2023-07-29T04:49:53;7.17;;;6.57;;
3379;SDS011;1703;51.964;7.642;2023-07-29T04:52:20;6.63;;;6.07;;
3379;SDS011;1703;51.964;7.642;2023-07-29T04:54:47;8.97;;;5.83;;
3379;SDS011;1703;51.964;7.642;2023-07-29T04:57:14;8.70;;;7.80;;
3379;SDS011;1703;51.964;7.642;2023-07-29T04:59:41;10.10;;;6.40;;
3379;SDS011;1703;51.964;7.642;2023-07-29T05:02:08;6.90;;;6.10;;
3379;SDS011;1703;51.964;7.642;2023-07-29T05:04:36;6.53;;;6.03;;
3379;SDS011;1703;51.964;7.642;2023-07-29T05:07:03;6.30;;;5.80;;
3379;SDS011;1703;51.964;7.642;2023-07-29T05:09:30;7.50;;;6.47;;
3379;SDS011;1703;51.964;7.642;2023-07-29T05:11:57;9.37;;;7.40;;
3379;SDS011;1703;51.964;7.642;2023-07-29T05:14:24;6.70;;;6.13;;
3379;SDS011;1703;51.964;7.642;2023-07-29T05:16:51;7.10;;;6.50;;
3379;SDS011;1703;51.964;7.642;2023-07-29T05:19:18;8.13;;;7.03;;
3379;SDS011;1703;51.964;7.642;2023-07-29T05:21:46;7.33;;;6.57;;
3379;SDS011;1703;51.964;7.642;2023-07-29T05:24:13;7.27;;;6.60;;
3379;SDS011;1703;51.964;7.642;2023-07-29T05:26:39;9.20;;;6.63;;
3379;SDS011;1703;51.964;7.642;2023-07-29T05:29:06;9.27;;;8.37;;
3379;SDS011;1703;51.964;7.642;2023-07-29T05:31:33;9.03;;;7.20;;
3379;SDS011;1703;51.964;7.642;2023-07-29T05:34:04;8.10;;;7.30;;
3379;SDS011;1703;51.964;7.642;2023-07-29T05:36:31;9.43;;;8.40;;
3379;SDS011;1703;51.964;7.642;2023-07-29T05:38:59;9.20;;;8.30;;
3379;SDS011;1703;51.964;7.642;2023-07-29T05:41:26;10.57;;;9.47;;
3379;SDS011;1703;51.964;7.642;2023-07-29T05:43:54;10.60;;;8.53;;
3379;SDS011;1703;51.964;7.642;2023-07-29T05:46:20;10.80;;;9.70;;
3379;SDS011;1703;51.964;7.642;2023-07-29T05:48:48;9.40;;;8.37;;
3379;SDS011;1703;51.964;7.642;2023-07-29T05:51:14;10.87;;;9.53;;
3379;SDS011;1703;51.964;7.642;2023-07-29T05:53:41;12.90;;;9.77;;
3379;SDS011;1703;51.964;7.642;2023-07-29T05:56:09;10.63;;;9.53;;
3379;SDS011;1703;51.964;7.642;2023-07-29T05:58:36;10.10;;;9.20;;
3379;SDS011;1703;51.964;7.642;2023-07-29T06:01:03;9.97;;;8.97;;
3379;SDS011;1703;51.964;7.642;2023-07-29T06:03:30;10.93;;;8.30;;
3379;SDS011;1703;51.964;7.642;2023-07-29T06:05:57;10.43;;;9.43;;
3379;SDS011;1703;51.964;7.642;2023-07-29T06:08:24;10.17;;;8.87;;
3379;SDS011;1703;51.964;7.642;2023-07-29T06:10:53;13.97;;;9.17;;
3379;SDS011;1703;51.964;7.642;2023-07-29T06:13:21;10.97;;;9.13;;
3379;SDS011;1703;51.964;7.642;2023-07-29T06:15:48;10.50;;;9.30;;
3379;SDS011;1703;51.964;7.642;2023-07-29T06:18:15;9.67;;;8.67;;
3379;SDS011;1703;51.964;7.642;2023-07-29T06:20:42;8.37;;;7.57;;
3379;SDS011;1703;51.964;7.642;2023-07-29T06:23:09;9.60;;;8.70;;
3379;SDS011;1703;51.964;7.642;2023-07-29T06:25:36;9.50;;;8.53;;
3379;SDS011;1703;51.964;7.642;2023-07-29T06:28:03;10.00;;;8.77;;
3379;SDS011;1703;51.964;7.642;2023-07-29T06:30:31;10.70;;;9.63;;
3379;SDS011;1703;51.964;7.642;2023-07-29T06:32:58;11.10;;;8.90;;
3379;SDS011;1703;51.964;7.642;2023-07-29T06:35:25;10.07;;;9.10;;
3379;SDS011;1703;51.964;7.642;2023-07-29T06:37:51;12.20;;;10.50;;
3379;SDS011;1703;51.964;7.642;2023-07-29T06:40:18;12.37;;;11.17;;
3379;SDS011;1703;51.964;7.642;2023-07-29T06:42:45;10.90;;;9.50;;
3379;SDS011;1703;51.964;7.642;2023-07-29T06:45:12;9.77;;;8.87;;
3379;SDS011;1703;51.964;7.642;2023-07-29T06:47:42;9.53;;;8.63;;
3379;SDS011;1703;51.964;7.642;2023-07-29T06:50:08;11.00;;;9.20;;
3379;SDS011;1703;51.964;7.642;2023-07-29T06:52:36;9.57;;;8.23;;
3379;SDS011;1703;51.964;7.642;2023-07-29T06:55:03;9.87;;;8.83;;
3379;SDS011;1703;51.964;7.642;2023-07-29T06:57:30;9.07;;;8.10;;
3379;SDS011;1703;51.964;7.642;2023-07-29T06:59:58;6.97;;;6.47;;
3379;SDS011;1703;51.964;7.642;2023-07-29T07:02:25;6.00;;;5.40;;
3379;SDS011;1703;51.964;7.642;2023-07-29T07:04:53;5.30;;;4.67;;
3379;SDS011;1703;51.964;7.642;2023-07-29T07:07:20;3.93;;;3.67;;
3379;SDS011;1703;51.964;7.642;2023-07-29T07:09:46;4.37;;;4.07;;
3379;SDS011;1703;51.964;7.642;2023-07-29T07:12:13;3.57;;;3.20;;
3379;SDS011;1703;51.964;7.642;2023-07-29T07:14:40;3.67;;;3.37;;
3379;SDS011;1703;51.964;7.642;2023-07-29T07:17:07;2.70;;;2.50;;
3379;SDS011;1703;51.964;7.642;2023-07-29T07:19:34;3.07;;;2.63;;
3379;SDS011;1703;51.964;7.642;2023-07-29T07:22:02;4.90;;;2.00;;
3379;SDS011;1703;51.964;7.642;2023-07-29T07:24:29;2.67;;;2.13;;
3379;SDS011;1703;51.964;7.642;2023-07-29T07:26:56;6.60;;;2.37;;
3379;SDS011;1703;51.964;7.642;2023-07-29T07:29:23;3.33;;;2.40;;
3379;SDS011;1703;51.964;7.642;2023-07-29T07:31:50;1.90;;;1.80;;
3379;SDS011;1703;51.964;7.642;2023-07-29T07:34:18;4.20;;;2.20;;
3379;SDS011;1703;51.964;7.642;2023-07-29T07:36:45;1.97;;;1.80;;
3379;SDS011;1703;51.964;7.642;2023-07-29T07:39:13;1.63;;;1.40;;
3379;SDS011;1703;51.964;7.642;2023-07-29T07:41:40;3.10;;;1.40;;
3379;SDS011;1703;51.964;7.642;2023-07-29T07:44:07;2.60;;;1.70;;
3379;SDS011;1703;51.964;7.642;2023-07-29T07:46:34;4.33;;;1.70;;
3379;SDS011;1703;51.964;7.642;2023-07-29T07:49:01;4.13;;;1.63;;
3379;SDS011;1703;51.964;7.642;2023-07-29T07:51:28;1.73;;;1.60;;
3379;SDS011;1703;51.964;7.642;2023-07-29T07:53:55;3.13;;;2.03;;
3379;SDS011;1703;51.964;7.642;2023-07-29T07:56:23;3.73;;;1.60;;
3379;SDS011;1703;51.964;7.642;2023-07-29T07:58:50;2.07;;;1.30;;
3379;SDS011;1703;51.964;7.642;2023-07-29T08:01:16;1.63;;;1.53;;
3379;SDS011;1703;51.964;7.642;2023-07-29T08:03:46;1.70;;;1.50;;
3379;SDS011;1703;51.964;7.642;2023-07-29T08:06:13;2.47;;;2.23;;
3379;SDS011;1703;51.964;7.642;2023-07-29T08:08:40;1.70;;;1.60;;
3379;SDS011;1703;51.964;7.642;2023-07-29T08:11:06;1.83;;;1.73;;
3379;SDS011;1703;51.964;7.642;2023-07-29T08:13:35;5.50;;;2.27;;
3379;SDS011;1703;51.964;7.642;2023-07-29T08:16:02;2.97;;;2.27;;
3379;SDS011;1703;51.964;7.642;2023-07-29T08:18:29;4.00;;;2.20;;
3379;SDS011;1703;51.964;7.642;2023-07-29T08:20:56;2.60;;;2.40;;
3379;SDS011;1703;51.964;7.642;2023-07-29T08:23:24;2.50;;;1.90;;
3379;SDS011;1703;51.964;7.642;2023-07-29T08:25:52;1.73;;;1.63;;
3379;SDS011;1703;51.964;7.642;2023-07-29T08:28:21;1.70;;;1.60;;
3379;SDS011;1703;51.964;7.642;2023-07-29T08:30:49;3.00;;;2.10;;
3379;SDS011;1703;51.964;7.642;2023-07-29T08:33:16;1.80;;;1.70;;
3379;SDS011;1703;51.964;7.642;2023-07-29T08:35:42;4.70;;;1.70;;
3379;SDS011;1703;51.964;7.642;2023-07-29T08:38:09;6.40;;;1.40;;
3379;SDS011;1703;51.964;7.642;2023-07-29T08:40:37;3.90;;;3.43;;
3379;SDS011;1703;51.964;7.642;2023-07-29T08:43:08;1.47;;;1.33;;
3379;SDS011;1703;51.964;7.642;2023-07-29T08:45:35;2.13;;;2.00;;
3379;SDS011;1703;51.964;7.642;2023-07-29T08:48:06;1.77;;;1.50;;
3379;SDS011;1703;51.964;7.642;2023-07-29T08:50:35;1.50;;;1.40;;
3379;SDS011;1703;51.964;7.642;2023-07-29T08:53:03;1.77;;;1.50;;
3379;SDS011;1703;51.964;7.642;2023-07-29T08:55:30;1.80;;;1.40;;
3379;SDS011;1703;51.964;7.642;2023-07-29T08:57:58;1.40;;;1.30;;
3379;SDS011;1703;51.964;7.642;2023-07-29T09:00:26;1.43;;;1.33;;
3379;SDS011;1703;51.964;7.642;2023-07-29T09:02:53;0.97;;;0.97;;
3379;SDS011;1703;51.964;7.642;2023-07-29T09:05:22;2.60;;;1.63;;
3379;SDS011;1703;51.964;7.642;2023-07-29T09:07:48;1.87;;;1.10;;
3379;SDS011;1703;51.964;7.642;2023-07-29T09:10:18;2.40;;;1.27;;
3379;SDS011;1703;51.964;7.642;2023-07-29T09:12:47;3.83;;;1.20;;
3379;SDS011;1703;51.964;7.642;2023-07-29T09:15:20;3.17;;;1.33;;
3379;SDS011;1703;51.964;7.642;2023-07-29T09:17:53;1.77;;;1.27;;
3379;SDS011;1703;51.964;7.642;2023-07-29T09:20:24;3.23;;;1.17;;
3379;SDS011;1703;51.964;7.642;2023-07-29T09:22:52;2.70;;;1.10;;
3379;SDS011;1703;51.964;7.642;2023-07-29T09:25:23;1.10;;;1.00;;
3379;SDS011;1703;51.964;7.642;2023-07-29T09:27:51;1.37;;;1.20;;
3379;SDS011;1703;51.964;7.642;2023-07-29T09:30:18;1.40;;;1.30;;
3379;SDS011;1703;51.964;7.642;2023-07-29T09:32:45;1.07;;;0.93;;
3379;SDS011;1703;51.964;7.642;2023-07-29T09:35:11;1.97;;;0.97;;
3379;SDS011;1703;51.964;7.642;2023-07-29T09:37:40;1.27;;;1.03;;
3379;SDS011;1703;51.964;7.642;2023-07-29T09:40:07;1.20;;;1.10;;
3379;SDS011;1703;51.964;7.642;2023-07-29T09:42:40;1.50;;;1.10;;
3379;SDS011;1703;51.964;7.642;2023-07-29T09:45:18;1.13;;;0.90;;
3379;SDS011;1703;51.964;7.642;2023-07-29T09:47:46;1.67;;;1.50;;
3379;SDS011;1703;51.964;7.642;2023-07-29T09:50:13;1.03;;;0.83;;
3379;SDS011;1703;51.964;7.642;2023-07-29T09:52:42;1.30;;;1.20;;
3379;SDS011;1703;51.964;7.642;2023-07-29T09:55:10;1.10;;;1.00;;
3379;SDS011;1703;51.964;7.642;2023-07-29T09:57:38;2.20;;;1.23;;
3379;SDS011;1703;51.964;7.642;2023-07-29T10:00:06;2.10;;;1.23;;
3379;SDS011;1703;51.964;7.642;2023-07-29T10:02:36;1.33;;;1.23;;
3379;SDS011;1703;51.964;7.642;2023-07-29T10:05:04;0.83;;;0.83;;
3379;SDS011;1703;51.964;7.642;2023-07-29T10:07:32;1.50;;;1.40;;
3379;SDS011;1703;51.964;7.642;2023-07-29T10:10:02;0.97;;;0.80;;
3379;SDS011;1703;51.964;7.642;2023-07-29T10:12:31;1.03;;;0.93;;
3379;SDS011;1703;51.964;7.642;2023-07-29T10:14:59;1.00;;;0.90;;
3379;SDS011;1703;51.964;7.642;2023-07-29T10:17:28;1.30;;;1.20;;
3379;SDS011;1703;51.964;7.642;2023-07-29T10:19:56;1.30;;;1.20;;
3379;SDS011;1703;51.964;7.642;2023-07-29T10:22:24;1.50;;;1.40;;
3379;SDS011;1703;51.964;7.642;2023-07-29T10:24:54;1.10;;;1.00;;
3379;SDS011;1703;51.964;7.642;2023-07-29T10:27:23;3.40;;;1.17;;
3379;SDS011;1703;51.964;7.642;2023-07-29T10:29:53;1.00;;;0.90;;
3379;SDS011;1703;51.964;7.642;2023-07-29T10:32:22;2.27;;;1.00;;
3379;SDS011;1703;51.964;7.642;2023-07-29T10:34:51;1.40;;;1.10;;
3379;SDS011;1703;51.964;7.642;2023-07-29T10:37:18;2.17;;;1.17;;
3379;SDS011;1703;51.964;7.642;2023-07-29T10:39:51;1.20;;;1.10;;
3379;SDS011;1703;51.964;7.642;2023-07-29T10:42:20;3.10;;;1.10;;
3379;SDS011;1703;51.964;7.642;2023-07-29T10:44:49;0.90;;;0.80;;
3379;SDS011;1703;51.964;7.642;2023-07-29T10:47:17;0.77;;;0.77;;
3379;SDS011;1703;51.964;7.642;2023-07-29T10:49:46;1.13;;;1.03;;
3379;SDS011;1703;51.964;7.642;2023-07-29T10:52:13;1.10;;;1.00;;
3379;SDS011;1703;51.964;7.642;2023-07-29T10:54:41;1.40;;;1.10;;
3379;SDS011;1703;51.964;7.642;2023-07-29T10:57:12;1.40;;;1.30;;
3379;SDS011;1703;51.964;7.642;2023-07-29T10:59:40;1.73;;;1.00;;
3379;SDS011;1703;51.964;7.642;2023-07-29T11:02:17;1.10;;;1.00;;
3379;SDS011;1703;51.964;7.642;2023-07-29T11:04:48;1.00;;;1.00;;
3379;SDS011;1703;51.964;7.642;2023-07-29T11:10:09;1.17;;;0.83;;
3379;SDS011;1703;51.964;7.642;2023-07-29T11:12:38;1.13;;;1.03;;
3379;SDS011;1703;51.964;7.642;2023-07-29T11:15:23;2.70;;;1.57;;
3379;SDS011;1703;51.964;7.642;2023-07-29T11:17:55;1.30;;;1.20;;
3379;SDS011;1703;51.964;7.642;2023-07-29T11:20:24;1.47;;;1.37;;
3379;SDS011;1703;51.964;7.642;2023-07-29T11:22:52;1.20;;;1.10;;
3379;SDS011;1703;51.964;7.642;2023-07-29T11:25:20;1.87;;;1.57;;
3379;SDS011;1703;51.964;7.642;2023-07-29T11:27:48;3.23;;;1.40;;
3379;SDS011;1703;51.964;7.642;2023-07-29T11:30:17;1.03;;;0.93;;
3379;SDS011;1703;51.964;7.642;2023-07-29T11:32:44;1.90;;;1.70;;
3379;SDS011;1703;51.964;7.642;2023-07-29T11:35:14;1.33;;;1.10;;
3379;SDS011;1703;51.964;7.642;2023-07-29T11:37:43;1.30;;;1.20;;
3379;SDS011;1703;51.964;7.642;2023-07-29T11:40:13;2.00;;;1.23;;
3379;SDS011;1703;51.964;7.642;2023-07-29T11:42:40;1.50;;;1.40;;
3379;SDS011;1703;51.964;7.642;2023-07-29T11:45:08;1.33;;;1.23;;
3379;SDS011;1703;51.964;7.642;2023-07-29T11:47:36;1.00;;;0.93;;
3379;SDS011;1703;51.964;7.642;2023-07-29T11:50:03;1.30;;;1.20;;
3379;SDS011;1703;51.964;7.642;2023-07-29T11:52:33;1.20;;;1.10;;
3379;SDS011;1703;51.964;7.642;2023-07-29T11:55:01;1.37;;;1.27;;
3379;SDS011;1703;51.964;7.642;2023-07-29T11:57:29;1.50;;;1.40;;
3379;SDS011;1703;51.964;7.642;2023-07-29T11:59:56;1.13;;;1.03;;
3379;SDS011;1703;51.964;7.642;2023-07-29T12:02:23;2.93;;;1.27;;
3379;SDS011;1703;51.964;7.642;2023-07-29T12:04:51;0.93;;;0.93;;
3379;SDS011;1703;51.964;7.642;2023-07-29T12:07:19;1.37;;;1.27;;
3379;SDS011;1703;51.964;7.642;2023-07-29T12:09:48;1.30;;;1.13;;
3379;SDS011;1703;51.964;7.642;2023-07-29T12:12:16;1.23;;;1.13;;
3379;SDS011;1703;51.964;7.642;2023-07-29T12:14:43;1.60;;;1.50;;
3379;SDS011;1703;51.964;7.642;2023-07-29T12:17:11;1.83;;;1.30;;
3379;SDS011;1703;51.964;7.642;2023-07-29T12:19:38;1.40;;;1.30;;
3379;SDS011;1703;51.964;7.642;2023-07-29T12:22:07;1.77;;;1.50;;
3379;SDS011;1703;51.964;7.642;2023-07-29T12:24:37;1.70;;;1.60;;
3379;SDS011;1703;51.964;7.642;2023-07-29T12:27:09;1.67;;;1.17;;
3379;SDS011;1703;51.964;7.642;2023-07-29T12:29:39;1.20;;;1.10;;
3379;SDS011;1703;51.964;7.642;2023-07-29T12:32:08;2.90;;;1.50;;
3379;SDS011;1703;51.964;7.642;2023-07-29T12:34:36;1.73;;;1.60;;
3379;SDS011;1703;51.964;7.642;2023-07-29T12:37:04;2.57;;;1.50;;
3379;SDS011;1703;51.964;7.642;2023-07-29T12:39:33;1.40;;;1.30;;
3379;SDS011;1703;51.964;7.642;2023-07-29T12:42:01;2.80;;;1.67;;
3379;SDS011;1703;51.964;7.642;2023-07-29T12:44:31;1.50;;;1.40;;
3379;SDS011;1703;51.964;7.642;2023-07-29T12:46:59;1.77;;;1.67;;
3379;SDS011;1703;51.964;7.642;2023-07-29T12:49:26;1.30;;;1.20;;
3379;SDS011;1703;51.964;7.642;2023-07-29T12:51:54;1.97;;;1.37;;
3379;SDS011;1703;51.964;7.642;2023-07-29T12:54:21;2.30;;;1.40;;
3379;SDS011;1703;51.964;7.642;2023-07-29T12:56:48;5.43;;;1.50;;
3379;SDS011;1703;51.964;7.642;2023-07-29T12:59:15;2.03;;;1.43;;
3379;SDS011;1703;51.964;7.642;2023-07-29T13:01:43;1.20;;;1.10;;
3379;SDS011;1703;51.964;7.642;2023-07-29T13:04:10;4.77;;;1.20;;
3379;SDS011;1703;51.964;7.642;2023-07-29T13:06:37;1.40;;;1.30;;
3379;SDS011;1703;51.964;7.642;2023-07-29T13:09:04;1.23;;;1.03;;
3379;SDS011;1703;51.964;7.642;2023-07-29T13:11:31;1.90;;;1.60;;
3379;SDS011;1703;51.964;7.642;2023-07-29T13:13:58;1.60;;;1.40;;
3379;SDS011;1703;51.964;7.642;2023-07-29T13:16:25;1.30;;;1.20;;
3379;SDS011;1703;51.964;7.642;2023-07-29T13:18:54;4.83;;;2.50;;
3379;SDS011;1703;51.964;7.642;2023-07-29T13:21:21;1.80;;;1.33;;
3379;SDS011;1703;51.964;7.642;2023-07-29T13:23:47;1.60;;;1.50;;
3379;SDS011;1703;51.964;7.642;2023-07-29T13:26:14;2.07;;;1.43;;
3379;SDS011;1703;51.964;7.642;2023-07-29T13:28:41;1.20;;;1.10;;
3379;SDS011;1703;51.964;7.642;2023-07-29T13:31:08;2.90;;;1.70;;
3379;SDS011;1703;51.964;7.642;2023-07-29T13:33:35;1.43;;;1.33;;
3379;SDS011;1703;51.964;7.642;2023-07-29T13:36:03;1.57;;;1.47;;
3379;SDS011;1703;51.964;7.642;2023-07-29T13:38:30;2.00;;;1.80;;
3379;SDS011;1703;51.964;7.642;2023-07-29T13:40:57;2.90;;;1.27;;
3379;SDS011;1703;51.964;7.642;2023-07-29T13:43:24;1.70;;;1.50;;
3379;SDS011;1703;51.964;7.642;2023-07-29T13:45:50;1.30;;;1.20;;
3379;SDS011;1703;51.964;7.642;2023-07-29T13:48:17;5.40;;;1.70;;
3379;SDS011;1703;51.964;7.642;2023-07-29T13:50:44;1.67;;;1.53;;
3379;SDS011;1703;51.964;7.642;2023-07-29T13:53:13;2.90;;;1.60;;
3379;SDS011;1703;51.964;7.642;2023-07-29T13:55:39;2.17;;;1.27;;
3379;SDS011;1703;51.964;7.642;2023-07-29T13:58:06;1.87;;;1.60;;
3379;SDS011;1703;51.964;7.642;2023-07-29T14:00:33;1.77;;;1.40;;
3379;SDS011;1703;51.964;7.642;2023-07-29T14:03:00;1.50;;;1.40;;
3379;SDS011;1703;51.964;7.642;2023-07-29T14:05:26;1.97;;;1.73;;
3379;SDS011;1703;51.964;7.642;2023-07-29T14:07:53;2.10;;;1.90;;
3379;SDS011;1703;51.964;7.642;2023-07-29T14:10:21;1.67;;;1.57;;
3379;SDS011;1703;51.964;7.642;2023-07-29T14:12:48;5.77;;;1.40;;
3379;SDS011;1703;51.964;7.642;2023-07-29T14:15:15;2.30;;;2.00;;
3379;SDS011;1703;51.964;7.642;2023-07-29T14:17:42;1.50;;;1.40;;
3379;SDS011;1703;51.964;7.642;2023-07-29T14:20:09;1.83;;;1.50;;
3379;SDS011;1703;51.964;7.642;2023-07-29T14:22:37;3.30;;;1.93;;
3379;SDS011;1703;51.964;7.642;2023-07-29T14:25:04;3.00;;;1.40;;
3379;SDS011;1703;51.964;7.642;2023-07-29T14:27:33;2.53;;;1.70;;
3379;SDS011;1703;51.964;7.642;2023-07-29T14:29:59;3.13;;;1.80;;
3379;SDS011;1703;51.964;7.642;2023-07-29T14:32:26;2.73;;;1.77;;
3379;SDS011;1703;51.964;7.642;2023-07-29T14:34:53;1.87;;;1.60;;
3379;SDS011;1703;51.964;7.642;2023-07-29T14:37:20;2.00;;;1.90;;
3379;SDS011;1703;51.964;7.642;2023-07-29T14:39:47;2.40;;;2.20;;
3379;SDS011;1703;51.964;7.642;2023-07-29T14:42:14;2.80;;;1.93;;
3379;SDS011;1703;51.964;7.642;2023-07-29T14:44:42;2.23;;;2.00;;
3379;SDS011;1703;51.964;7.642;2023-07-29T14:47:09;3.63;;;1.87;;
3379;SDS011;1703;51.964;7.642;2023-07-29T14:49:35;3.60;;;1.63;;
3379;SDS011;1703;51.964;7.642;2023-07-29T14:52:02;5.53;;;2.13;;
3379;SDS011;1703;51.964;7.642;2023-07-29T14:54:30;1.40;;;1.30;;
3379;SDS011;1703;51.964;7.642;2023-07-29T14:56:56;2.93;;;1.37;;
3379;SDS011;1703;51.964;7.642;2023-07-29T14:59:23;1.27;;;1.17;;
3379;SDS011;1703;51.964;7.642;2023-07-29T15:01:52;1.87;;;1.10;;
3379;SDS011;1703;51.964;7.642;2023-07-29T15:04:19;2.20;;;1.40;;
3379;SDS011;1703;51.964;7.642;2023-07-29T15:06:46;1.00;;;0.90;;
3379;SDS011;1703;51.964;7.642;2023-07-29T15:09:12;2.13;;;1.03;;
3379;SDS011;1703;51.964;7.642;2023-07-29T15:11:39;1.60;;;0.87;;
3379;SDS011;1703;51.964;7.642;2023-07-29T15:14:06;1.30;;;1.20;;
3379;SDS011;1703;51.964;7.642;2023-07-29T15:16:33;1.33;;;1.00;;
3379;SDS011;1703;51.964;7.642;2023-07-29T15:19:02;1.40;;;1.30;;
3379;SDS011;1703;51.964;7.642;2023-07-29T15:21:29;1.30;;;1.20;;